createdAt,value
2022-11-27T00:01:33.108Z,24.70
2022-11-27T00:04:03.912Z,24.90
2022-11-27T00:06:35.079Z,27.10
2022-11-27T00:09:09.235Z,25.10
2022-11-27T00:11:40.859Z,24.60
2022-11-27T00:14:12.381Z,27.30
2022-11-27T00:16:43.691Z,24.70
2022-11-27T00:19:15.152Z,29.70
2022-11-27T00:21:46.089Z,23.60
2022-11-27T00:24:16.982Z,21.90
2022-11-27T00:26:50.067Z,25.30
2022-11-27T00:29:22.178Z,26.40
2022-11-27T00:31:53.561Z,26.60
2022-11-27T00:34:24.128Z,21.50
2022-11-27T00:36:57.959Z,24.10
2022-11-27T00:39:28.907Z,25.70
2022-11-27T00:42:00.140Z,26.00
2022-11-27T00:44:31.016Z,20.70
2022-11-27T00:47:02.972Z,24.60
2022-11-27T00:49:33.880Z,23.90
2022-11-27T00:52:04.953Z,23.60
2022-11-27T00:54:35.383Z,26.40
2022-11-27T00:57:06.967Z,22.60
2022-11-27T00:59:39.695Z,21.10
2022-11-27T01:02:10.948Z,29.30
2022-11-27T01:04:42.262Z,25.90
2022-11-27T01:07:13.395Z,28.10
2022-11-27T01:09:43.875Z,26.40
2022-11-27T01:12:15.055Z,27.10
2022-11-27T01:14:45.513Z,21.80
2022-11-27T01:17:18.264Z,24.70
2022-11-27T01:19:48.937Z,24.60
2022-11-27T01:22:20.205Z,19.20
2022-11-27T01:24:50.724Z,17.60
2022-11-27T01:27:21.640Z,18.00
2022-11-27T01:29:52.178Z,20.40
2022-11-27T01:32:23.408Z,24.70
2022-11-27T01:34:54.531Z,17.60
2022-11-27T01:37:26.272Z,17.70
2022-11-27T01:39:56.845Z,17.40
2022-11-27T01:42:28.019Z,15.80
2022-11-27T01:44:58.516Z,18.70
2022-11-27T01:47:35.841Z,20.00
2022-11-27T01:50:13.571Z,21.40
2022-11-27T01:52:47.923Z,19.70
2022-11-27T01:55:21.901Z,21.40
2022-11-27T01:57:58.078Z,21.90
2022-11-27T02:00:28.813Z,20.60
2022-11-27T02:02:59.788Z,25.20
2022-11-27T02:05:30.692Z,21.80
2022-11-27T02:08:04.405Z,22.10
2022-11-27T02:10:40.118Z,20.80
2022-11-27T02:13:12.870Z,21.80
2022-11-27T02:15:45.467Z,23.00
2022-11-27T02:18:24.986Z,22.50
2022-11-27T02:20:56.864Z,21.50
2022-11-27T02:23:38.191Z,21.90
2022-11-27T02:26:19.251Z,23.90
2022-11-27T02:29:09.808Z,20.90
2022-11-27T02:31:42.844Z,23.00
2022-11-27T02:48:07.986Z,21.90
2022-11-27T02:50:39.483Z,19.70
2022-11-27T02:53:11.953Z,20.70
2022-11-27T02:55:44.322Z,20.30
2022-11-27T02:58:17.259Z,21.80
2022-11-27T03:00:48.450Z,21.50
2022-11-27T03:03:21.475Z,18.40
2022-11-27T03:05:54.009Z,20.20
2022-11-27T03:08:27.111Z,24.00
2022-11-27T03:11:03.896Z,21.60
2022-11-27T03:13:38.849Z,21.80
2022-11-27T03:16:11.822Z,20.40
2022-11-27T03:18:43.917Z,20.00
2022-11-27T03:21:18.029Z,21.50
2022-11-27T03:23:48.848Z,22.20
2022-11-27T03:26:19.769Z,26.50
2022-11-27T03:28:52.092Z,26.80
2022-11-27T03:31:26.362Z,26.40
2022-11-27T03:33:57.952Z,27.90
2022-11-27T03:36:28.600Z,30.50
2022-11-27T03:38:59.520Z,29.60
2022-11-27T03:41:36.123Z,32.40
2022-11-27T03:44:12.015Z,32.10
2022-11-27T03:46:47.631Z,32.30
2022-11-27T03:49:22.667Z,31.20
2022-11-27T03:51:55.615Z,32.50
2022-11-27T03:54:32.625Z,29.80
2022-11-27T03:57:06.637Z,31.70
2022-11-27T03:59:38.925Z,31.60
2022-11-27T04:02:12.762Z,27.80
2022-11-27T04:04:43.748Z,27.60
2022-11-27T04:07:17.841Z,29.10
2022-11-27T04:09:48.818Z,28.70
2022-11-27T04:12:19.333Z,31.60
2022-11-27T04:14:50.062Z,29.10
2022-11-27T04:17:20.594Z,30.80
2022-11-27T04:19:51.661Z,32.80
2022-11-27T04:22:22.196Z,29.30
2022-11-27T04:24:52.903Z,30.10
2022-11-27T04:27:24.141Z,32.00
2022-11-27T04:29:55.697Z,30.80
2022-11-27T04:32:26.428Z,33.50
2022-11-27T04:34:57.200Z,35.90
2022-11-27T04:37:27.804Z,34.70
2022-11-27T04:39:58.933Z,32.40
2022-11-27T04:42:29.824Z,33.90
2022-11-27T04:45:01.051Z,32.50
2022-11-27T04:47:31.813Z,29.30
2022-11-27T04:50:02.865Z,31.80
2022-11-27T04:52:33.626Z,29.40
2022-11-27T04:55:04.873Z,36.70
2022-11-27T04:57:35.677Z,34.60
2022-11-27T05:00:07.711Z,37.70
2022-11-27T05:02:38.902Z,35.60
2022-11-27T05:05:10.565Z,30.80
2022-11-27T05:07:41.776Z,31.80
2022-11-27T05:10:13.518Z,30.50
2022-11-27T05:12:43.898Z,31.30
2022-11-27T05:15:14.769Z,38.50
2022-11-27T05:17:45.559Z,32.40
2022-11-27T05:20:16.416Z,34.10
2022-11-27T05:22:48.570Z,33.40
2022-11-27T05:25:19.539Z,30.70
2022-11-27T05:27:50.301Z,30.80
2022-11-27T05:30:21.044Z,30.50
2022-11-27T05:32:51.566Z,28.20
2022-11-27T05:35:22.457Z,29.20
2022-11-27T05:37:53.160Z,31.60
2022-11-27T05:40:24.096Z,31.70
2022-11-27T05:42:54.522Z,25.60
2022-11-27T05:45:26.603Z,30.40
2022-11-27T05:47:57.061Z,30.70
2022-11-27T05:50:28.689Z,32.40
2022-11-27T05:52:59.468Z,29.50
2022-11-27T05:55:30.188Z,34.20
2022-11-27T05:58:00.661Z,33.70
2022-11-27T06:00:31.868Z,33.10
2022-11-27T06:03:02.448Z,34.20
2022-11-27T06:05:33.312Z,34.00
2022-11-27T06:08:03.961Z,30.60
2022-11-27T06:10:35.149Z,29.10
2022-11-27T06:13:05.602Z,25.40
2022-11-27T06:15:37.409Z,29.90
2022-11-27T06:18:08.375Z,33.80
2022-11-27T06:20:43.672Z,32.00
2022-11-27T06:23:15.262Z,33.30
2022-11-27T06:25:46.099Z,29.70
2022-11-27T06:28:16.943Z,32.00
2022-11-27T06:30:47.566Z,29.70
2022-11-27T06:33:18.094Z,30.40
2022-11-27T06:35:48.964Z,28.90
2022-11-27T06:38:19.722Z,28.40
2022-11-27T06:40:50.543Z,31.80
2022-11-27T06:43:20.976Z,28.90
2022-11-27T06:45:58.074Z,36.20
2022-11-27T06:48:28.741Z,30.90
2022-11-27T06:51:02.217Z,29.60
2022-11-27T06:53:34.705Z,26.20
2022-11-27T06:56:05.886Z,27.90
2022-11-27T06:58:36.635Z,33.60
2022-11-27T07:01:08.490Z,29.20
2022-11-27T07:03:39.495Z,28.90
2022-11-27T07:06:13.747Z,29.00
2022-11-27T07:08:44.591Z,31.60
2022-11-27T07:11:16.914Z,26.50
2022-11-27T07:13:47.859Z,29.00
2022-11-27T07:16:19.537Z,30.10
2022-11-27T07:18:51.365Z,35.00
2022-11-27T07:23:53.443Z,31.00
2022-11-27T07:26:25.201Z,34.50
2022-11-27T07:28:56.514Z,26.10
2022-11-27T07:31:28.437Z,30.80
2022-11-27T07:33:59.457Z,25.70
2022-11-27T07:36:31.172Z,24.00
2022-11-27T07:39:02.038Z,23.60
2022-11-27T07:41:34.234Z,24.40
2022-11-27T07:44:05.702Z,28.00
2022-11-27T07:46:36.797Z,29.60
2022-11-27T07:49:07.731Z,31.10
2022-11-27T07:51:38.826Z,22.60
2022-11-27T07:54:11.460Z,21.30
2022-11-27T07:56:42.144Z,23.20
2022-11-27T07:59:13.251Z,24.70
2022-11-27T08:01:45.022Z,21.50
2022-11-27T08:04:21.698Z,20.10
2022-11-27T08:06:52.295Z,23.10
2022-11-27T08:09:23.358Z,19.40
2022-11-27T08:11:53.904Z,19.00
2022-11-27T08:14:24.932Z,17.00
2022-11-27T08:16:55.408Z,19.10
2022-11-27T08:19:26.876Z,21.70
2022-11-27T08:21:57.716Z,18.30
2022-11-27T08:24:28.953Z,20.20
2022-11-27T08:26:59.700Z,23.40
2022-11-27T08:29:33.908Z,24.50
2022-11-27T08:32:05.105Z,24.10
2022-11-27T08:34:36.396Z,21.30
2022-11-27T08:37:07.138Z,22.80
2022-11-27T08:39:38.455Z,21.80
2022-11-27T08:42:08.799Z,24.70
2022-11-27T08:44:40.524Z,23.10
2022-11-27T08:47:11.292Z,22.60
2022-11-27T08:49:46.053Z,25.40
2022-11-27T08:52:17.726Z,26.90
2022-11-27T08:54:52.005Z,25.60
2022-11-27T08:57:26.476Z,23.90
2022-11-27T08:59:57.240Z,24.20
2022-11-27T09:02:27.748Z,25.70
2022-11-27T09:04:58.705Z,25.90
2022-11-27T09:07:29.579Z,26.20
2022-11-27T09:10:01.102Z,24.10
2022-11-27T09:12:31.625Z,19.80
2022-11-27T09:15:02.907Z,20.50
2022-11-27T09:17:33.642Z,21.00
2022-11-27T09:20:04.785Z,21.50
2022-11-27T09:22:36.064Z,20.40
2022-11-27T09:25:07.728Z,19.60
2022-11-27T09:27:39.183Z,19.40
2022-11-27T09:30:11.078Z,19.80
2022-11-27T09:32:41.600Z,21.50
2022-11-27T09:35:12.445Z,17.40
2022-11-27T09:37:42.947Z,22.00
2022-11-27T09:40:17.230Z,22.10
2022-11-27T09:42:51.176Z,21.70
2022-11-27T09:45:23.349Z,21.70
2022-11-27T09:47:55.985Z,21.20
2022-11-27T09:50:28.986Z,18.20
2022-11-27T09:53:00.868Z,21.50
2022-11-27T09:55:34.315Z,21.50
2022-11-27T09:58:06.912Z,21.20
2022-11-27T10:00:38.725Z,20.70
2022-11-27T10:03:14.318Z,21.60
2022-11-27T10:05:49.017Z,20.60
2022-11-27T10:08:25.299Z,20.80
2022-11-27T10:11:02.937Z,20.50
2022-11-27T10:13:42.340Z,24.30
2022-11-27T10:16:20.427Z,18.70
2022-11-27T10:18:53.047Z,19.30
2022-11-27T10:21:28.804Z,20.10
2022-11-27T10:24:02.727Z,19.50
2022-11-27T10:26:38.676Z,20.50
2022-11-27T10:29:13.999Z,20.50
2022-11-27T10:31:49.550Z,21.30
2022-11-27T10:34:27.307Z,19.10
2022-11-27T10:37:00.092Z,17.10
2022-11-27T10:39:33.828Z,22.00
2022-11-27T10:42:09.195Z,19.80
2022-11-27T10:44:43.233Z,17.40
2022-11-27T10:47:15.515Z,17.90
2022-11-27T10:49:48.071Z,19.10
2022-11-27T10:52:20.263Z,23.30
2022-11-27T10:54:56.526Z,18.00
2022-11-27T10:57:32.544Z,19.40
2022-11-27T11:00:08.075Z,17.10
2022-11-27T11:02:40.197Z,18.40
2022-11-27T11:05:35.049Z,20.20
2022-11-27T11:08:17.447Z,21.80
2022-11-27T11:10:51.996Z,20.40
2022-11-27T11:13:24.381Z,19.80
2022-11-27T11:15:56.295Z,20.30
2022-11-27T11:18:28.216Z,19.00
2022-11-27T11:20:59.758Z,23.90
2022-11-27T11:23:32.629Z,20.20
2022-11-27T11:26:05.439Z,25.40
2022-11-27T11:28:42.026Z,21.90
2022-11-27T11:31:16.065Z,25.00
2022-11-27T11:33:52.132Z,19.80
2022-11-27T11:36:22.950Z,23.90
2022-11-27T11:38:54.831Z,22.20
2022-11-27T11:41:25.631Z,21.90
2022-11-27T11:43:57.859Z,19.90
2022-11-27T11:46:30.055Z,23.70
2022-11-27T11:49:02.590Z,21.90
2022-11-27T11:51:45.797Z,18.00
2022-11-27T11:54:25.230Z,24.70
2022-11-27T11:56:58.025Z,17.60
2022-11-27T11:59:32.470Z,19.90
2022-11-27T12:02:22.328Z,17.30
2022-11-27T12:05:06.467Z,17.00
2022-11-27T12:07:52.224Z,19.30
2022-11-27T12:10:26.450Z,20.70
2022-11-27T12:13:01.556Z,18.00
2022-11-27T12:15:34.927Z,17.20
2022-11-27T12:18:11.003Z,17.80
2022-11-27T12:20:45.657Z,20.90
2022-11-27T12:23:28.344Z,21.00
2022-11-27T12:26:04.287Z,21.90
2022-11-27T12:28:43.080Z,18.40
2022-11-27T12:31:19.666Z,19.70
2022-11-27T12:33:57.576Z,16.90
2022-11-27T12:36:34.862Z,15.40
2022-11-27T12:39:10.993Z,13.90
2022-11-27T12:41:52.869Z,16.50
2022-11-27T12:44:26.496Z,18.90
2022-11-27T12:47:00.206Z,18.50
2022-11-27T12:49:33.451Z,18.50
2022-11-27T12:52:10.327Z,15.40
2022-11-27T12:54:43.891Z,17.20
2022-11-27T12:57:16.837Z,16.90
2022-11-27T12:59:50.791Z,21.20
2022-11-27T13:02:28.273Z,21.50
2022-11-27T13:05:02.474Z,22.80
2022-11-27T13:07:40.908Z,19.60
2022-11-27T13:10:20.520Z,19.40
2022-11-27T13:12:53.395Z,15.10
2022-11-27T13:15:25.971Z,18.20
2022-11-27T13:18:00.049Z,14.70
2022-11-27T13:20:34.979Z,19.20
2022-11-27T13:23:06.018Z,15.90
2022-11-27T13:25:40.540Z,16.60
2022-11-27T13:28:18.040Z,18.50
2022-11-27T13:30:50.052Z,16.90
2022-11-27T13:33:26.008Z,14.80
2022-11-27T13:35:56.526Z,17.40
2022-11-27T13:38:28.194Z,17.20
2022-11-27T13:41:01.322Z,16.50
2022-11-27T13:46:04.175Z,20.30
2022-11-27T13:48:35.823Z,22.60
2022-11-27T13:51:07.188Z,25.60
2022-11-27T13:53:39.292Z,23.10
2022-11-27T13:56:10.339Z,22.40
2022-11-27T13:58:42.759Z,22.00
2022-11-27T14:01:19.075Z,27.70
2022-11-27T14:03:50.485Z,24.90
2022-11-27T14:06:22.704Z,22.40
2022-11-27T14:08:55.576Z,25.00
2022-11-27T14:11:34.722Z,20.60
2022-11-27T14:14:13.288Z,23.20
2022-11-27T14:16:44.020Z,22.60
2022-11-27T14:19:33.380Z,21.80
2022-11-27T14:22:14.904Z,24.40
2022-11-27T14:24:46.875Z,24.10
2022-11-27T14:27:21.551Z,24.80
2022-11-27T14:29:52.847Z,25.00
2022-11-27T14:32:23.720Z,22.80
2022-11-27T14:34:54.711Z,23.50
2022-11-27T14:37:26.203Z,21.00
2022-11-27T14:39:56.898Z,22.90
2022-11-27T14:42:30.648Z,28.80
2022-11-27T14:45:07.588Z,27.40
2022-11-27T14:47:40.079Z,27.10
2022-11-27T14:50:14.684Z,26.90
2022-11-27T14:52:48.073Z,25.50
2022-11-27T14:55:20.316Z,31.50
2022-11-27T14:57:51.381Z,26.40
2022-11-27T15:00:25.609Z,27.40
2022-11-27T15:02:56.939Z,29.40
2022-11-27T15:05:30.241Z,27.00
2022-11-27T15:08:02.271Z,29.10
2022-11-27T15:10:36.694Z,25.30
2022-11-27T15:13:08.619Z,26.70
2022-11-27T15:15:41.466Z,24.40
2022-11-27T15:18:19.602Z,28.60
2022-11-27T15:20:50.973Z,26.80
2022-11-27T15:23:24.501Z,32.40
2022-11-27T15:26:09.669Z,32.40
2022-11-27T15:28:44.006Z,28.30
2022-11-27T15:31:26.019Z,29.60
2022-11-27T15:34:11.525Z,29.70
2022-11-27T15:36:43.378Z,30.00
2022-11-27T15:39:19.121Z,27.40
2022-11-27T15:41:54.351Z,28.60
2022-11-27T15:44:25.938Z,30.70
2022-11-27T15:46:58.666Z,30.40
2022-11-27T15:49:30.387Z,31.30
2022-11-27T15:52:01.363Z,31.30
2022-11-27T15:54:31.848Z,31.50
2022-11-27T15:57:03.451Z,33.30
2022-11-27T15:59:34.082Z,30.80
2022-11-27T16:02:05.569Z,29.80
2022-11-27T16:04:36.247Z,37.30
2022-11-27T16:07:08.588Z,36.40
2022-11-27T16:09:39.947Z,39.30
2022-11-27T16:12:11.215Z,34.50
2022-11-27T16:14:41.980Z,38.80
2022-11-27T16:17:13.427Z,39.10
2022-11-27T16:19:43.924Z,37.90
2022-11-27T16:22:15.524Z,30.90
2022-11-27T16:24:46.007Z,36.20
2022-11-27T16:27:17.334Z,38.60
2022-11-27T16:29:47.897Z,34.10
2022-11-27T16:32:19.491Z,34.80
2022-11-27T16:34:51.089Z,31.50
2022-11-27T16:37:22.182Z,31.80
2022-11-27T16:39:52.661Z,25.90
2022-11-27T16:42:23.888Z,23.00
2022-11-27T16:44:54.853Z,24.80
2022-11-27T16:47:30.543Z,26.40
2022-11-27T16:50:04.643Z,26.00
2022-11-27T16:52:37.790Z,27.60
2022-11-27T16:55:09.665Z,30.60
2022-11-27T16:57:41.000Z,24.20
2022-11-27T17:00:15.647Z,24.70
2022-11-27T17:02:47.126Z,28.50
2022-11-27T17:05:18.118Z,26.40
2022-11-27T17:07:49.311Z,25.90
2022-11-27T17:10:20.606Z,28.90
2022-11-27T17:12:51.543Z,27.20
2022-11-27T17:15:22.073Z,27.70
2022-11-27T17:17:57.828Z,36.50
2022-11-27T17:20:28.462Z,30.10
2022-11-27T17:23:00.110Z,29.10
2022-11-27T17:25:31.969Z,30.80
2022-11-27T17:28:02.955Z,29.60
2022-11-27T17:30:37.930Z,32.90
2022-11-27T17:33:12.260Z,32.30
2022-11-27T17:35:42.786Z,34.10
2022-11-27T17:38:14.436Z,30.00
2022-11-27T17:40:45.131Z,28.60
2022-11-27T17:43:16.223Z,26.50
2022-11-27T17:45:46.745Z,29.60
2022-11-27T17:48:17.782Z,28.10
2022-11-27T17:50:48.306Z,30.60
2022-11-27T17:53:19.457Z,32.00
2022-11-27T17:55:50.473Z,32.10
2022-11-27T17:58:22.658Z,31.40
2022-11-27T18:00:53.078Z,32.00
2022-11-27T18:03:25.254Z,29.40
2022-11-27T18:05:56.912Z,30.10
2022-11-27T18:08:28.301Z,37.90
2022-11-27T18:10:58.901Z,33.50
2022-11-27T18:13:32.894Z,31.50
2022-11-27T18:16:08.314Z,33.00
2022-11-27T18:18:40.204Z,33.20
2022-11-27T18:21:16.741Z,35.90
2022-11-27T18:24:21.508Z,35.90
2022-11-27T18:29:32.406Z,35.40
2022-11-27T18:32:03.018Z,36.90
2022-11-27T18:34:34.265Z,33.90
2022-11-27T18:37:04.809Z,35.00
2022-11-27T18:39:35.937Z,34.30
2022-11-27T18:42:07.386Z,37.20
2022-11-27T18:44:45.113Z,37.30
2022-11-27T18:47:16.422Z,34.20
2022-11-27T18:49:49.321Z,35.60
2022-11-27T18:52:19.837Z,37.50
2022-11-27T18:54:51.231Z,36.00
2022-11-27T18:57:21.727Z,39.30
2022-11-27T18:59:52.424Z,39.00
2022-11-27T19:02:22.957Z,33.30
2022-11-27T19:04:54.118Z,32.20
2022-11-27T19:07:26.675Z,36.00
2022-11-27T19:09:57.704Z,39.60
2022-11-27T19:12:28.376Z,40.60
2022-11-27T19:15:00.536Z,39.10
2022-11-27T19:17:32.592Z,33.00
2022-11-27T19:20:04.313Z,39.10
2022-11-27T19:22:38.981Z,35.90
2022-11-27T19:25:10.864Z,38.40
2022-11-27T19:27:41.882Z,42.00
2022-11-27T19:30:13.856Z,43.90
2022-11-27T19:32:45.183Z,39.20
2022-11-27T19:35:16.930Z,33.80
2022-11-27T19:37:47.501Z,36.00
2022-11-27T19:40:19.758Z,40.10
2022-11-27T19:42:54.577Z,42.00
2022-11-27T19:45:29.084Z,47.10
2022-11-27T19:47:59.822Z,40.70
2022-11-27T19:50:31.339Z,38.70
2022-11-27T19:53:04.345Z,36.80
2022-11-27T19:55:36.426Z,39.20
2022-11-27T19:58:07.161Z,39.60
2022-11-27T20:00:38.854Z,43.10
2022-11-27T20:03:09.283Z,40.60
2022-11-27T20:05:40.488Z,43.40
2022-11-27T20:08:11.317Z,43.10
2022-11-27T20:10:42.465Z,41.10
2022-11-27T20:13:13.410Z,40.00
2022-11-27T20:15:44.646Z,39.20
2022-11-27T20:18:15.085Z,39.80
2022-11-27T20:20:47.013Z,38.20
2022-11-27T20:23:17.871Z,46.30
2022-11-27T20:25:50.800Z,49.00
2022-11-27T20:28:21.453Z,43.70
2022-11-27T20:30:58.510Z,46.10
2022-11-27T20:33:29.128Z,46.30
2022-11-27T20:36:02.730Z,45.60
2022-11-27T20:38:33.121Z,45.10
2022-11-27T20:41:07.498Z,61.50
2022-11-27T20:43:38.793Z,52.90
2022-11-27T20:46:10.378Z,45.90
2022-11-27T20:48:42.020Z,46.30
2022-11-27T20:51:13.985Z,45.60
2022-11-27T20:53:45.260Z,45.00
2022-11-27T20:56:18.701Z,41.10
2022-11-27T20:58:49.764Z,42.70
2022-11-27T21:01:23.439Z,47.30
2022-11-27T21:03:54.839Z,50.10
2022-11-27T21:06:27.272Z,46.20
2022-11-27T21:08:57.791Z,47.00
2022-11-27T21:11:30.779Z,46.20
2022-11-27T21:14:02.891Z,37.70
2022-11-27T21:16:36.376Z,43.80
2022-11-27T21:19:08.463Z,43.70
2022-11-27T21:21:39.568Z,42.50
2022-11-27T21:24:11.221Z,40.70
2022-11-27T21:26:42.979Z,40.60
2022-11-27T21:29:13.904Z,40.50
2022-11-27T21:31:47.443Z,42.20
2022-11-27T21:34:18.580Z,45.90
2022-11-27T21:36:51.553Z,46.30
2022-11-27T21:39:22.563Z,48.50
2022-11-27T21:41:54.309Z,47.90
2022-11-27T21:44:25.678Z,43.60
2022-11-27T21:46:57.163Z,47.00
2022-11-27T21:49:27.950Z,47.30
2022-11-27T21:51:59.302Z,44.20
2022-11-27T21:54:34.339Z,45.00
2022-11-27T21:57:05.376Z,47.20
2022-11-27T21:59:37.033Z,52.20
2022-11-27T22:02:11.201Z,49.50
2022-11-27T22:07:12.192Z,45.30
2022-11-27T22:09:43.023Z,47.10
2022-11-27T22:12:13.880Z,48.20
2022-11-27T22:14:44.599Z,44.70
2022-11-27T22:17:16.266Z,47.30
2022-11-27T22:19:46.890Z,50.90
2022-11-27T22:22:18.096Z,49.60
2022-11-27T22:24:48.878Z,45.50
2022-11-27T22:27:20.729Z,43.60
2022-11-27T22:29:52.328Z,45.90
2022-11-27T22:32:24.754Z,44.10
2022-11-27T22:34:55.297Z,54.60
2022-11-27T22:37:27.613Z,54.20
2022-11-27T22:39:58.499Z,53.00
2022-11-27T22:42:29.543Z,42.70
2022-11-27T22:45:00.273Z,45.60
2022-11-27T22:47:31.582Z,44.70
2022-11-27T22:50:02.143Z,48.10
2022-11-27T22:52:34.018Z,44.10
2022-11-27T22:55:04.942Z,50.10
2022-11-27T22:57:36.793Z,48.60
2022-11-27T23:00:09.937Z,55.10
2022-11-27T23:02:41.751Z,48.90
2022-11-27T23:05:12.427Z,51.60
2022-11-27T23:07:43.732Z,45.10
2022-11-27T23:10:14.575Z,48.70
2022-11-27T23:12:46.885Z,47.70
2022-11-27T23:15:17.500Z,51.00
2022-11-27T23:17:48.699Z,52.10
2022-11-27T23:20:19.234Z,52.90
2022-11-27T23:22:50.202Z,53.40
2022-11-27T23:25:20.901Z,57.10
2022-11-27T23:27:52.659Z,54.10
2022-11-27T23:30:23.297Z,43.00
2022-11-27T23:32:54.172Z,53.90
2022-11-27T23:35:24.855Z,54.80
2022-11-27T23:37:55.790Z,59.70
2022-11-27T23:40:26.420Z,54.70
2022-11-27T23:42:57.367Z,59.20
2022-11-27T23:45:28.056Z,55.10
2022-11-27T23:47:59.244Z,54.90
2022-11-27T23:50:30.180Z,55.50
2022-11-27T23:53:01.137Z,55.20
2022-11-27T23:55:31.803Z,56.30
2022-11-27T23:58:03.205Z,61.90
